Time;durP1;ratioP1;P1;durP2;ratioP2;P2;SDS_P1;SDS_P2;PMS_P1;PMS_P2;Temp;Humidity;BMP_temperature;BMP_pressure;BME280_temperature;BME280_humidity;BME280_pressure;Samples;Min_cycle;Max_cycle;Signal;HPM_P1;HPM_P2
2024/02/26 00:01:25;;;;;;;9.23;7.73;;;;;;;;;;5012513;28;20925;-80
2024/02/26 00:03:52;;;;;;;8.27;7.33;;;;;;;;;;5027708;28;20481;-79
2024/02/26 00:06:18;;;;;;;9.70;8.10;;;;;;;;;;5012402;28;20408;-81
2024/02/26 00:08:44;;;;;;;8.97;8.00;;;;;;;;;;5015755;28;20872;-80
2024/02/26 00:11:10;;;;;;;8.53;6.70;;;;;;;;;;5016090;28;20410;-81
2024/02/26 00:13:36;;;;;;;9.27;7.63;;;;;;;;;;5015956;28;20998;-82
2024/02/26 00:16:03;;;;;;;8.67;7.00;;;;;;;;;;5016042;28;20493;-79
2024/02/26 00:18:29;;;;;;;9.53;7.87;;;;;;;;;;5031109;28;20441;-79
2024/02/26 00:20:55;;;;;;;9.67;7.03;;;;;;;;;;5015858;28;20418;-81
2024/02/26 00:23:21;;;;;;;8.47;7.47;;;;;;;;;;5015578;28;20829;-78
2024/02/26 00:25:47;;;;;;;8.97;7.57;;;;;;;;;;5015720;28;20411;-79
2024/02/26 00:28:16;;;;;;;9.70;6.33;;;;;;;;;;5015805;28;20420;-79
2024/02/26 00:30:42;;;;;;;11.53;8.00;;;;;;;;;;5015682;28;20414;-78
2024/02/26 00:33:08;;;;;;;8.20;7.17;;;;;;;;;;5030790;28;21017;-79
2024/02/26 00:35:34;;;;;;;9.47;7.83;;;;;;;;;;5015604;28;20480;-78
2024/02/26 00:38:01;;;;;;;10.97;8.30;;;;;;;;;;5015224;28;20413;-78
2024/02/26 00:40:27;;;;;;;11.57;8.47;;;;;;;;;;5030537;28;20528;-79
2024/02/26 00:42:53;;;;;;;11.50;9.30;;;;;;;;;;5015543;28;20418;-79
2024/02/26 00:45:19;;;;;;;9.53;8.63;;;;;;;;;;5030657;28;20469;-80
2024/02/26 00:47:47;;;;;;;10.63;8.37;;;;;;;;;;5015376;28;20977;-79
2024/02/26 00:50:13;;;;;;;9.47;8.10;;;;;;;;;;5015317;28;20429;-80
2024/02/26 00:52:41;;;;;;;8.60;7.60;;;;;;;;;;5030049;28;20902;-79
2024/02/26 00:55:10;;;;;;;6.23;5.63;;;;;;;;;;5030369;28;20804;-78
2024/02/26 00:57:40;;;;;;;6.67;5.37;;;;;;;;;;5015233;28;20419;-79
2024/02/26 01:00:08;;;;;;;7.70;6.93;;;;;;;;;;5030464;28;20803;-80
2024/02/26 01:02:34;;;;;;;8.57;6.50;;;;;;;;;;5030282;28;20920;-79
2024/02/26 01:05:00;;;;;;;10.70;7.77;;;;;;;;;;5015085;28;20411;-79
2024/02/26 01:07:26;;;;;;;9.67;7.50;;;;;;;;;;5014612;28;20418;-79
2024/02/26 01:09:52;;;;;;;9.47;6.97;;;;;;;;;;5014944;28;20891;-79
2024/02/26 01:12:18;;;;;;;10.60;8.77;;;;;;;;;;5014848;28;20414;-80
2024/02/26 01:14:44;;;;;;;9.33;7.67;;;;;;;;;;5014731;28;20860;-79
2024/02/26 01:17:12;;;;;;;10.23;8.70;;;;;;;;;;5014907;28;20414;-78
2024/02/26 01:19:38;;;;;;;12.93;8.43;;;;;;;;;;5014344;28;20789;-79
2024/02/26 01:22:04;;;;;;;10.80;8.37;;;;;;;;;;5014818;28;20408;-79
2024/02/26 01:24:30;;;;;;;10.50;8.43;;;;;;;;;;5014362;28;20428;-79
2024/02/26 01:26:56;;;;;;;11.40;8.40;;;;;;;;;;5014613;28;20406;-78
2024/02/26 01:29:22;;;;;;;8.83;7.97;;;;;;;;;;5014598;28;20440;-78
2024/02/26 01:31:48;;;;;;;12.50;8.20;;;;;;;;;;5014610;28;20469;-79
2024/02/26 01:34:18;;;;;;;10.70;8.40;;;;;;;;;;5014394;28;20487;-79
2024/02/26 01:36:44;;;;;;;10.27;8.33;;;;;;;;;;5014472;28;20780;-79
2024/02/26 01:39:13;;;;;;;9.37;7.73;;;;;;;;;;5013718;28;20465;-80
2024/02/26 01:41:39;;;;;;;12.53;9.10;;;;;;;;;;5014310;28;20919;-79
2024/02/26 01:44:05;;;;;;;9.90;8.87;;;;;;;;;;5014288;28;20410;-79
2024/02/26 01:46:33;;;;;;;11.53;9.00;;;;;;;;;;5014235;28;20414;-79
2024/02/26 01:48:59;;;;;;;10.83;9.00;;;;;;;;;;5012991;28;20424;-78
2024/02/26 01:51:25;;;;;;;9.60;8.03;;;;;;;;;;5014208;28;20963;-79
2024/02/26 01:53:51;;;;;;;12.00;9.50;;;;;;;;;;5012456;28;20895;-80
2024/02/26 01:56:18;;;;;;;10.40;8.17;;;;;;;;;;5014154;28;20419;-78
2024/02/26 01:58:44;;;;;;;9.83;8.00;;;;;;;;;;5014009;28;20423;-80
2024/02/26 02:01:10;;;;;;;10.53;8.90;;;;;;;;;;5014127;28;20780;-79
2024/02/26 02:03:36;;;;;;;9.37;8.03;;;;;;;;;;5013966;28;20421;-80
2024/02/26 02:06:03;;;;;;;11.80;8.10;;;;;;;;;;5014007;28;20403;-79
2024/02/26 02:08:29;;;;;;;8.57;6.53;;;;;;;;;;5013428;28;20426;-79
2024/02/26 02:10:55;;;;;;;8.73;7.77;;;;;;;;;;5013837;28;20780;-81
2024/02/26 02:13:21;;;;;;;10.33;8.23;;;;;;;;;;5028925;28;20979;-79
2024/02/26 02:15:47;;;;;;;9.67;6.57;;;;;;;;;;5013818;28;20473;-79
2024/02/26 02:18:13;;;;;;;9.20;7.33;;;;;;;;;;5013769;28;20417;-80
2024/02/26 02:20:39;;;;;;;10.20;8.30;;;;;;;;;;5028816;28;20412;-80
2024/02/26 02:23:05;;;;;;;9.53;7.60;;;;;;;;;;5013363;28;20442;-78
2024/02/26 02:25:33;;;;;;;9.80;8.37;;;;;;;;;;5013692;28;20402;-79
2024/02/26 02:28:00;;;;;;;9.70;6.77;;;;;;;;;;5028843;28;20962;-79
2024/02/26 02:30:28;;;;;;;10.10;6.63;;;;;;;;;;5012700;28;20399;-78
2024/02/26 02:32:54;;;;;;;8.77;7.53;;;;;;;;;;5013505;28;20438;-78
2024/02/26 02:35:20;;;;;;;10.30;7.47;;;;;;;;;;5013498;28;20428;-78
2024/02/26 02:37:46;;;;;;;8.43;7.13;;;;;;;;;;5028293;28;20419;-79
2024/02/26 02:40:12;;;;;;;10.20;6.23;;;;;;;;;;5013314;28;20823;-79
2024/02/26 02:42:38;;;;;;;9.60;7.70;;;;;;;;;;5022982;28;20422;-79
2024/02/26 02:45:04;;;;;;;10.13;7.60;;;;;;;;;;5032916;28;20532;-80
2024/02/26 02:47:30;;;;;;;9.87;7.20;;;;;;;;;;5032912;28;20528;-79
2024/02/26 02:49:56;;;;;;;8.80;7.40;;;;;;;;;;5032926;28;20444;-79
2024/02/26 02:52:21;;;;;;;8.50;7.27;;;;;;;;;;5032645;28;20499;-78
2024/02/26 02:54:47;;;;;;;8.87;7.20;;;;;;;;;;5032649;28;20481;-80
2024/02/26 02:57:13;;;;;;;8.83;6.60;;;;;;;;;;5048341;28;20809;-79
2024/02/26 02:59:39;;;;;;;7.27;5.33;;;;;;;;;;5032866;28;20426;-79
2024/02/26 03:02:06;;;;;;;8.23;5.37;;;;;;;;;;5032731;28;20412;-79
2024/02/26 03:04:32;;;;;;;9.03;6.53;;;;;;;;;;5031346;28;20459;-78
2024/02/26 03:06:58;;;;;;;8.03;6.43;;;;;;;;;;5032685;28;20417;-79
2024/02/26 03:09:24;;;;;;;8.87;7.07;;;;;;;;;;5032296;28;20489;-79
2024/02/26 03:11:50;;;;;;;7.13;5.90;;;;;;;;;;5032721;28;20419;-81
2024/02/26 03:14:16;;;;;;;12.83;8.10;;;;;;;;;;5033069;28;20927;-79
2024/02/26 03:16:42;;;;;;;9.97;7.33;;;;;;;;;;5031231;28;20459;-79
2024/02/26 03:19:07;;;;;;;7.23;5.97;;;;;;;;;;5032648;28;20426;-79
2024/02/26 03:21:33;;;;;;;9.47;6.73;;;;;;;;;;5031238;28;20427;-79
2024/02/26 03:23:59;;;;;;;9.30;6.60;;;;;;;;;;5032262;28;20506;-80
2024/02/26 03:26:25;;;;;;;8.17;5.60;;;;;;;;;;5032479;28;20929;-79
2024/02/26 03:28:51;;;;;;;8.77;7.03;;;;;;;;;;5039872;28;20419;-80
2024/02/26 03:31:17;;;;;;;10.13;5.80;;;;;;;;;;5035870;28;20498;-79
2024/02/26 03:33:43;;;;;;;9.87;7.53;;;;;;;;;;5032369;28;20514;-80
2024/02/26 03:36:09;;;;;;;9.60;6.93;;;;;;;;;;5032440;28;20899;-79
2024/02/26 03:38:35;;;;;;;9.97;7.80;;;;;;;;;;5030786;28;20427;-79
2024/02/26 03:41:04;;;;;;;9.63;8.07;;;;;;;;;;5030844;28;20458;-79
2024/02/26 03:43:32;;;;;;;11.57;7.30;;;;;;;;;;5035532;28;20429;-80
2024/02/26 03:45:58;;;;;;;9.80;7.40;;;;;;;;;;5035689;28;20413;-79
2024/02/26 03:48:24;;;;;;;9.00;7.47;;;;;;;;;;5035747;28;20424;-79
2024/02/26 03:50:50;;;;;;;8.80;7.40;;;;;;;;;;5035725;28;20772;-80
2024/02/26 03:53:16;;;;;;;8.97;6.70;;;;;;;;;;5035409;28;20458;-80
2024/02/26 03:55:45;;;;;;;9.53;7.17;;;;;;;;;;5034925;28;20460;-78
2024/02/26 03:58:12;;;;;;;10.73;8.60;;;;;;;;;;5036062;28;20420;-79
2024/02/26 04:00:38;;;;;;;9.80;7.07;;;;;;;;;;5035939;28;20514;-79
2024/02/26 04:03:04;;;;;;;9.00;7.07;;;;;;;;;;5036086;28;20480;-78
2024/02/26 04:05:30;;;;;;;9.17;6.93;;;;;;;;;;5035990;28;20450;-78
2024/02/26 04:07:56;;;;;;;10.60;7.83;;;;;;;;;;5035713;28;20413;-80
2024/02/26 04:10:22;;;;;;;9.17;6.40;;;;;;;;;;5035872;28;20415;-79
2024/02/26 04:12:48;;;;;;;8.87;7.50;;;;;;;;;;5035796;28;20412;-78
2024/02/26 04:15:14;;;;;;;8.70;7.50;;;;;;;;;;5035856;28;20422;-78
2024/02/26 04:17:40;;;;;;;10.43;8.03;;;;;;;;;;5035798;28;20907;-79
2024/02/26 04:20:06;;;;;;;8.30;7.50;;;;;;;;;;5035833;28;20434;-81
2024/02/26 04:22:33;;;;;;;10.43;7.80;;;;;;;;;;5034069;28;20422;-78
2024/02/26 04:24:58;;;;;;;9.77;7.00;;;;;;;;;;5035624;28;20420;-79
2024/02/26 04:27:25;;;;;;;9.50;8.50;;;;;;;;;;5034313;28;20429;-78
2024/02/26 04:29:50;;;;;;;8.70;7.70;;;;;;;;;;5035648;28;20459;-78
2024/02/26 04:32:16;;;;;;;9.80;7.17;;;;;;;;;;5034148;28;21007;-79
2024/02/26 04:34:43;;;;;;;11.20;7.87;;;;;;;;;;5035457;28;20478;-79
2024/02/26 04:37:08;;;;;;;9.20;6.93;;;;;;;;;;5035227;28;20409;-78
2024/02/26 04:39:34;;;;;;;9.17;7.30;;;;;;;;;;5035201;28;20474;-79
2024/02/26 04:42:03;;;;;;;8.47;6.50;;;;;;;;;;5035333;28;20952;-78
2024/02/26 04:44:29;;;;;;;8.87;7.17;;;;;;;;;;5050137;28;20505;-78
2024/02/26 04:46:55;;;;;;;9.70;6.47;;;;;;;;;;5035199;28;20437;-79
2024/02/26 04:49:24;;;;;;;7.67;6.80;;;;;;;;;;5035255;28;20996;-78
2024/02/26 04:51:50;;;;;;;7.10;6.43;;;;;;;;;;5034872;28;20415;-78
2024/02/26 04:54:15;;;;;;;9.00;6.47;;;;;;;;;;5034082;28;20476;-78
2024/02/26 04:56:41;;;;;;;8.40;7.57;;;;;;;;;;5035054;28;20490;-78
2024/02/26 04:59:07;;;;;;;6.97;6.20;;;;;;;;;;5033747;28;20428;-79
2024/02/26 05:01:33;;;;;;;11.13;7.20;;;;;;;;;;5035068;28;20454;-79
2024/02/26 05:03:59;;;;;;;7.20;6.40;;;;;;;;;;5035047;28;20459;-78
2024/02/26 05:06:25;;;;;;;7.17;6.20;;;;;;;;;;5033630;28;20874;-78
2024/02/26 05:08:51;;;;;;;8.40;6.60;;;;;;;;;;5034484;28;20420;-79
2024/02/26 05:11:18;;;;;;;7.50;6.73;;;;;;;;;;5034809;28;20444;-78
2024/02/26 05:13:45;;;;;;;7.63;6.43;;;;;;;;;;5034696;28;20470;-80
2024/02/26 05:16:11;;;;;;;9.63;6.77;;;;;;;;;;5034708;28;20444;-79
2024/02/26 05:18:37;;;;;;;7.83;6.30;;;;;;;;;;5034593;28;20441;-79
2024/02/26 05:21:03;;;;;;;9.30;7.60;;;;;;;;;;5034669;28;20410;-80
2024/02/26 05:23:29;;;;;;;8.13;6.13;;;;;;;;;;5034324;28;20972;-79
2024/02/26 05:25:55;;;;;;;10.60;7.80;;;;;;;;;;5034526;28;20478;-79
2024/02/26 05:28:21;;;;;;;8.70;5.83;;;;;;;;;;5033206;28;20429;-79
2024/02/26 05:30:47;;;;;;;8.53;7.10;;;;;;;;;;5033149;28;20490;-79
2024/02/26 05:33:13;;;;;;;7.47;5.43;;;;;;;;;;5034427;28;21146;-79
2024/02/26 05:35:40;;;;;;;8.43;5.80;;;;;;;;;;5034350;28;20563;-79
2024/02/26 05:38:09;;;;;;;10.80;7.13;;;;;;;;;;5032542;28;20419;-79
2024/02/26 05:40:35;;;;;;;7.47;6.53;;;;;;;;;;5032652;28;20476;-80
2024/02/26 05:43:01;;;;;;;11.47;6.47;;;;;;;;;;5049102;28;20421;-80
2024/02/26 05:45:27;;;;;;;8.80;7.27;;;;;;;;;;5034033;28;20803;-79
2024/02/26 05:47:53;;;;;;;9.37;6.90;;;;;;;;;;5032834;28;20508;-79
2024/02/26 05:50:18;;;;;;;11.80;6.20;;;;;;;;;;5033833;28;20909;-80
2024/02/26 05:52:44;;;;;;;9.67;5.43;;;;;;;;;;5033462;28;20437;-79
2024/02/26 05:55:10;;;;;;;9.17;7.47;;;;;;;;;;5032447;28;20992;-80
2024/02/26 05:57:37;;;;;;;10.10;7.00;;;;;;;;;;5033792;28;20461;-79
2024/02/26 06:00:06;;;;;;;9.33;7.20;;;;;;;;;;5033720;28;20420;-79
2024/02/26 06:02:32;;;;;;;8.00;6.90;;;;;;;;;;5033637;28;20416;-80
2024/02/26 06:04:58;;;;;;;7.50;6.30;;;;;;;;;;5033453;28;20415;-79
2024/02/26 06:07:24;;;;;;;8.27;6.70;;;;;;;;;;5033314;28;20908;-80
2024/02/26 06:09:50;;;;;;;8.10;6.47;;;;;;;;;;5032288;28;20911;-81
2024/02/26 06:12:16;;;;;;;8.80;7.50;;;;;;;;;;5032308;28;20538;-80
2024/02/26 06:14:45;;;;;;;8.90;7.03;;;;;;;;;;5033546;28;20472;-81
2024/02/26 06:17:11;;;;;;;9.17;7.50;;;;;;;;;;5032174;28;20413;-79
2024/02/26 06:19:37;;;;;;;6.97;5.90;;;;;;;;;;5033424;28;20421;-79
2024/02/26 06:22:02;;;;;;;10.20;6.43;;;;;;;;;;5033070;28;20779;-80
2024/02/26 06:24:28;;;;;;;9.57;7.10;;;;;;;;;;5033473;28;20426;-80
2024/02/26 06:26:54;;;;;;;9.13;6.73;;;;;;;;;;5033177;28;20415;-79
2024/02/26 06:29:20;;;;;;;11.83;8.07;;;;;;;;;;5033233;28;20898;-80
2024/02/26 06:31:48;;;;;;;9.60;6.97;;;;;;;;;;5033342;28;20477;-79
2024/02/26 06:34:14;;;;;;;11.97;8.17;;;;;;;;;;5033230;28;20496;-79
2024/02/26 06:36:40;;;;;;;11.00;7.60;;;;;;;;;;5033042;28;20404;-82
2024/02/26 06:39:12;;;;;;;9.00;6.70;;;;;;;;;;5033147;28;20516;-82
2024/02/26 06:41:39;;;;;;;9.60;7.00;;;;;;;;;;5033317;28;20941;-81
2024/02/26 06:44:05;;;;;;;11.47;7.53;;;;;;;;;;5033381;28;20405;-81
2024/02/26 06:46:31;;;;;;;11.60;8.30;;;;;;;;;;5033597;28;20969;-82
2024/02/26 06:48:57;;;;;;;11.40;8.23;;;;;;;;;;5033084;28;20517;-78
2024/02/26 06:51:23;;;;;;;9.27;7.43;;;;;;;;;;5031919;28;20930;-78
2024/02/26 06:53:49;;;;;;;10.60;8.37;;;;;;;;;;5032888;28;20483;-81
2024/02/26 06:56:15;;;;;;;9.60;7.90;;;;;;;;;;5033280;28;20916;-79
2024/02/26 06:58:41;;;;;;;11.00;8.30;;;;;;;;;;5033008;28;20415;-79
2024/02/26 07:01:10;;;;;;;9.97;8.00;;;;;;;;;;5033095;28;20756;-79
2024/02/26 07:03:36;;;;;;;9.53;7.30;;;;;;;;;;5033045;28;20421;-77
2024/02/26 07:06:02;;;;;;;7.53;6.77;;;;;;;;;;5033054;28;20774;-78
2024/02/26 07:08:29;;;;;;;10.40;8.73;;;;;;;;;;5032853;28;20813;-78
2024/02/26 07:10:55;;;;;;;10.87;7.53;;;;;;;;;;5033153;28;20822;-80
2024/02/26 07:13:21;;;;;;;9.60;6.50;;;;;;;;;;5031679;28;20820;-79
2024/02/26 07:15:47;;;;;;;10.90;6.50;;;;;;;;;;5031888;28;20425;-81
2024/02/26 07:18:13;;;;;;;8.70;7.33;;;;;;;;;;5032551;28;20408;-80
2024/02/26 07:20:39;;;;;;;9.43;8.10;;;;;;;;;;5032982;28;20421;-80
2024/02/26 07:23:05;;;;;;;7.87;7.07;;;;;;;;;;5031192;28;20405;-79
2024/02/26 07:25:31;;;;;;;9.60;7.97;;;;;;;;;;5032818;28;20421;-80
2024/02/26 07:27:57;;;;;;;8.10;7.30;;;;;;;;;;5032772;28;20415;-80
2024/02/26 07:30:24;;;;;;;7.93;5.83;;;;;;;;;;5032905;28;20442;-80
2024/02/26 07:32:50;;;;;;;16.20;7.60;;;;;;;;;;5032959;28;20409;-83
2024/02/26 07:35:17;;;;;;;8.67;6.60;;;;;;;;;;5032685;28;20434;-80
2024/02/26 07:37:43;;;;;;;9.27;7.63;;;;;;;;;;5032517;28;20628;-81
2024/02/26 07:40:09;;;;;;;8.43;7.43;;;;;;;;;;5032043;28;20470;-80
2024/02/26 07:42:35;;;;;;;10.93;7.67;;;;;;;;;;5032373;28;20429;-79
2024/02/26 07:45:03;;;;;;;9.33;6.60;;;;;;;;;;5032733;28;20417;-81
2024/02/26 07:47:29;;;;;;;9.80;7.40;;;;;;;;;;5032785;28;20452;-79
2024/02/26 07:49:55;;;;;;;11.20;7.43;;;;;;;;;;5032807;28;20818;-79
2024/02/26 07:52:21;;;;;;;7.40;6.60;;;;;;;;;;5032069;28;20408;-79
2024/02/26 07:54:47;;;;;;;11.53;8.10;;;;;;;;;;5032374;28;20568;-79
2024/02/26 07:57:16;;;;;;;9.73;7.40;;;;;;;;;;5032795;28;20410;-80
2024/02/26 07:59:42;;;;;;;10.20;6.87;;;;;;;;;;5032477;28;20417;-79
2024/02/26 08:02:14;;;;;;;10.37;8.37;;;;;;;;;;5032616;28;20488;-83
2024/02/26 08:04:43;;;;;;;10.67;7.67;;;;;;;;;;5032630;28;20406;-81
2024/02/26 08:07:09;;;;;;;11.43;6.80;;;;;;;;;;5032074;28;20451;-81
2024/02/26 08:09:35;;;;;;;14.53;7.53;;;;;;;;;;5031330;28;20431;-83
2024/02/26 08:12:04;;;;;;;8.20;6.40;;;;;;;;;;5032627;28;20417;-82
2024/02/26 08:14:32;;;;;;;10.60;7.80;;;;;;;;;;5032370;28;20473;-82
2024/02/26 08:16:58;;;;;;;10.13;7.77;;;;;;;;;;5030641;28;20948;-83
2024/02/26 08:19:24;;;;;;;9.07;6.97;;;;;;;;;;5032339;28;20421;-82
2024/02/26 08:21:50;;;;;;;8.60;7.60;;;;;;;;;;5031847;28;20466;-81
2024/02/26 08:24:16;;;;;;;8.83;7.67;;;;;;;;;;5030665;28;20426;-81
2024/02/26 08:26:42;;;;;;;10.40;7.73;;;;;;;;;;5031980;28;20412;-81
2024/02/26 08:29:08;;;;;;;8.43;6.80;;;;;;;;;;5033259;28;20414;-81
2024/02/26 08:31:37;;;;;;;8.63;7.83;;;;;;;;;;5035451;28;20472;-81
2024/02/26 08:34:03;;;;;;;10.10;7.13;;;;;;;;;;5035553;28;20835;-80
2024/02/26 08:36:29;;;;;;;9.70;8.53;;;;;;;;;;5034921;28;20418;-81
2024/02/26 08:38:55;;;;;;;9.37;7.07;;;;;;;;;;5035235;28;20510;-81
2024/02/26 08:41:20;;;;;;;8.93;6.37;;;;;;;;;;5035503;28;20480;-81
2024/02/26 08:43:46;;;;;;;9.13;7.77;;;;;;;;;;5034081;28;20419;-81
2024/02/26 08:46:15;;;;;;;9.30;7.50;;;;;;;;;;5035225;28;20418;-81
2024/02/26 08:48:41;;;;;;;8.50;6.40;;;;;;;;;;5035368;28;20471;-80
2024/02/26 08:51:08;;;;;;;8.30;6.20;;;;;;;;;;5034855;28;20821;-80
2024/02/26 08:53:34;;;;;;;11.30;8.00;;;;;;;;;;5033828;28;20488;-80
2024/02/26 08:56:00;;;;;;;10.43;6.90;;;;;;;;;;5033846;28;20488;-81
2024/02/26 08:58:26;;;;;;;12.33;7.93;;;;;;;;;;5035082;28;20827;-81
2024/02/26 09:00:52;;;;;;;8.63;7.40;;;;;;;;;;5033660;28;20419;-81
2024/02/26 09:03:18;;;;;;;9.50;7.40;;;;;;;;;;5035025;28;20423;-81
2024/02/26 09:05:44;;;;;;;8.93;6.37;;;;;;;;;;5034955;28;20423;-81
2024/02/26 09:08:10;;;;;;;7.43;6.63;;;;;;;;;;5033995;28;20463;-81
2024/02/26 09:10:36;;;;;;;5.77;4.40;;;;;;;;;;5034864;28;20424;-81
2024/02/26 09:13:02;;;;;;;5.30;4.00;;;;;;;;;;5034700;28;20473;-81
2024/02/26 09:15:28;;;;;;;5.40;4.27;;;;;;;;;;5034706;28;20979;-81
2024/02/26 09:18:03;;;;;;;4.80;3.93;;;;;;;;;;5034665;28;20451;-82
2024/02/26 09:20:32;;;;;;;4.60;4.10;;;;;;;;;;5034697;28;20457;-81
2024/02/26 09:22:58;;;;;;;4.27;3.87;;;;;;;;;;5032929;28;20481;-81
2024/02/26 09:25:24;;;;;;;5.73;4.23;;;;;;;;;;5033257;28;20784;-82
2024/02/26 09:27:50;;;;;;;5.00;4.50;;;;;;;;;;5034592;28;20183;-82
2024/02/26 09:30:16;;;;;;;5.17;4.13;;;;;;;;;;5034537;28;20902;-82
2024/02/26 09:32:46;;;;;;;7.33;3.53;;;;;;;;;;5034416;28;20427;-81
2024/02/26 09:35:13;;;;;;;4.93;4.00;;;;;;;;;;5034275;28;20558;-80
2024/02/26 09:37:39;;;;;;;5.50;3.90;;;;;;;;;;5033865;28;20904;-81
2024/02/26 09:40:11;;;;;;;6.60;4.40;;;;;;;;;;5033620;28;20472;-78
2024/02/26 09:42:37;;;;;;;3.97;3.40;;;;;;;;;;5032945;28;20442;-81
2024/02/26 09:45:08;;;;;;;4.30;3.50;;;;;;;;;;5034227;28;20499;-81
2024/02/26 09:47:35;;;;;;;5.83;4.80;;;;;;;;;;5034115;28;20767;-81
2024/02/26 09:50:02;;;;;;;9.67;4.10;;;;;;;;;;5034083;28;20412;-81
2024/02/26 09:52:29;;;;;;;5.07;3.50;;;;;;;;;;5033646;28;20439;-81
2024/02/26 09:54:55;;;;;;;4.87;4.23;;;;;;;;;;5033946;28;20986;-81
2024/02/26 09:57:24;;;;;;;4.00;3.60;;;;;;;;;;5033993;28;20873;-82
2024/02/26 09:59:51;;;;;;;3.97;3.20;;;;;;;;;;5033904;28;20473;-81
2024/02/26 10:02:18;;;;;;;5.17;4.17;;;;;;;;;;5033838;28;20415;-80
2024/02/26 10:04:45;;;;;;;4.73;4.20;;;;;;;;;;5033768;28;20412;-80
2024/02/26 10:07:13;;;;;;;4.50;3.70;;;;;;;;;;5033496;28;20460;-81
2024/02/26 10:09:39;;;;;;;5.57;4.90;;;;;;;;;;5033655;28;20499;-81
2024/02/26 10:12:05;;;;;;;5.30;4.80;;;;;;;;;;5033648;28;20470;-81
2024/02/26 10:14:36;;;;;;;5.90;5.30;;;;;;;;;;5033671;28;20473;-82
2024/02/26 10:17:02;;;;;;;4.97;4.47;;;;;;;;;;5033992;28;20405;-80
2024/02/26 10:19:29;;;;;;;8.17;5.23;;;;;;;;;;5032706;28;20425;-81
2024/02/26 10:21:59;;;;;;;7.17;5.03;;;;;;;;;;5033415;28;20419;-81
2024/02/26 10:24:28;;;;;;;6.37;5.27;;;;;;;;;;5033711;28;20428;-81
2024/02/26 10:26:57;;;;;;;6.07;5.07;;;;;;;;;;5033685;28;20452;-81
2024/02/26 10:29:24;;;;;;;5.47;4.97;;;;;;;;;;5033787;28;20421;-81
2024/02/26 10:31:54;;;;;;;6.07;4.40;;;;;;;;;;5033580;28;20415;-81
2024/02/26 10:34:22;;;;;;;5.17;4.60;;;;;;;;;;5032351;28;20473;-80
2024/02/26 10:36:49;;;;;;;6.40;5.33;;;;;;;;;;5033184;28;20452;-79
2024/02/26 10:39:15;;;;;;;5.80;5.00;;;;;;;;;;5033316;28;20514;-79
2024/02/26 10:41:42;;;;;;;4.90;3.93;;;;;;;;;;5032219;28;20432;-79
2024/02/26 10:44:12;;;;;;;5.40;4.70;;;;;;;;;;5033277;28;20484;-80
2024/02/26 10:46:39;;;;;;;6.57;4.27;;;;;;;;;;5032499;28;20427;-80
2024/02/26 10:49:08;;;;;;;5.13;4.40;;;;;;;;;;5033152;28;20405;-81
2024/02/26 10:51:36;;;;;;;5.50;4.77;;;;;;;;;;5032279;28;20407;-80
2024/02/26 10:54:04;;;;;;;6.80;4.80;;;;;;;;;;5033040;28;20459;-80
2024/02/26 10:56:34;;;;;;;6.90;5.70;;;;;;;;;;5031713;28;20428;-80
2024/02/26 10:59:00;;;;;;;5.40;4.90;;;;;;;;;;5032871;28;20405;-80
2024/02/26 11:01:29;;;;;;;6.23;5.47;;;;;;;;;;5032999;28;20416;-81
2024/02/26 11:03:55;;;;;;;5.40;4.70;;;;;;;;;;5032872;28;20497;-81
2024/02/26 11:06:26;;;;;;;5.97;4.80;;;;;;;;;;5032488;28;21003;-81
2024/02/26 11:08:53;;;;;;;5.87;5.27;;;;;;;;;;5032670;28;20501;-81
2024/02/26 11:11:22;;;;;;;6.80;5.30;;;;;;;;;;5032707;28;20424;-80
2024/02/26 11:13:50;;;;;;;6.80;4.60;;;;;;;;;;5032602;28;20927;-81
2024/02/26 11:16:19;;;;;;;8.20;6.63;;;;;;;;;;5032174;28;20426;-80
2024/02/26 11:18:50;;;;;;;9.27;6.40;;;;;;;;;;5031127;28;20425;-81
2024/02/26 11:21:18;;;;;;;7.10;6.37;;;;;;;;;;5031757;28;20509;-81
2024/02/26 11:23:46;;;;;;;6.23;5.57;;;;;;;;;;5032511;28;20402;-80
2024/02/26 11:26:13;;;;;;;6.73;6.00;;;;;;;;;;5031118;28;20473;-80
2024/02/26 11:28:40;;;;;;;8.40;6.33;;;;;;;;;;5047875;28;20773;-80
2024/02/26 11:31:07;;;;;;;7.10;5.40;;;;;;;;;;5030995;28;20417;-80
2024/02/26 11:33:35;;;;;;;5.60;4.63;;;;;;;;;;5032560;28;20457;-80
2024/02/26 11:36:02;;;;;;;5.90;5.30;;;;;;;;;;5032093;28;20521;-80
2024/02/26 11:38:28;;;;;;;5.87;4.40;;;;;;;;;;5032122;28;20404;-80
2024/02/26 11:40:55;;;;;;;6.53;5.90;;;;;;;;;;5031206;28;20515;-81
2024/02/26 11:43:39;;;;;;;8.20;5.20;;;;;;;;;;5032191;28;20408;-81
2024/02/26 11:46:25;;;;;;;6.43;5.27;;;;;;;;;;5031005;28;20405;-80
2024/02/26 11:48:50;;;;;;;5.17;3.97;;;;;;;;;;5031223;28;20416;-80
2024/02/26 11:51:16;;;;;;;7.13;4.70;;;;;;;;;;5031259;28;20782;-81
2024/02/26 11:53:48;;;;;;;7.10;5.40;;;;;;;;;;5031542;28;20282;-81
2024/02/26 11:56:24;;;;;;;6.07;4.83;;;;;;;;;;5031883;28;20586;-81
2024/02/26 11:59:10;;;;;;;6.43;5.77;;;;;;;;;;5032279;28;20532;-81
2024/02/26 12:01:36;;;;;;;4.87;4.30;;;;;;;;;;5032281;28;20431;-81
2024/02/26 12:04:02;;;;;;;5.90;4.97;;;;;;;;;;5035108;28;20422;-81
2024/02/26 12:06:28;;;;;;;5.60;3.77;;;;;;;;;;5035498;28;20444;-81
2024/02/26 12:08:56;;;;;;;5.17;3.90;;;;;;;;;;5035890;28;20417;-80
2024/02/26 12:11:22;;;;;;;6.07;4.40;;;;;;;;;;5035946;28;20446;-80
2024/02/26 12:13:49;;;;;;;8.30;4.60;;;;;;;;;;5035502;28;20526;-80
2024/02/26 12:16:35;;;;;;;6.90;3.90;;;;;;;;;;5035935;28;20440;-81
2024/02/26 12:19:01;;;;;;;6.87;4.63;;;;;;;;;;5035840;28;20500;-81
2024/02/26 12:21:27;;;;;;;6.83;5.90;;;;;;;;;;5035362;28;20854;-80
2024/02/26 12:23:53;;;;;;;8.60;5.93;;;;;;;;;;5034445;28;20496;-80
2024/02/26 12:26:19;;;;;;;7.50;4.83;;;;;;;;;;5034407;28;20418;-81
2024/02/26 12:28:47;;;;;;;8.27;6.17;;;;;;;;;;5035579;28;20480;-80
2024/02/26 12:31:14;;;;;;;8.90;6.73;;;;;;;;;;5035416;28;20929;-82
2024/02/26 12:33:39;;;;;;;9.80;6.27;;;;;;;;;;5035268;28;20477;-81
2024/02/26 12:36:06;;;;;;;7.70;6.20;;;;;;;;;;5034464;28;20409;-81
2024/02/26 12:38:32;;;;;;;9.03;7.13;;;;;;;;;;5034934;28;20413;-81
2024/02/26 12:40:58;;;;;;;7.70;6.07;;;;;;;;;;5034515;28;20548;-81
2024/02/26 12:43:24;;;;;;;8.90;6.50;;;;;;;;;;5034698;28;20847;-81
2024/02/26 12:45:50;;;;;;;8.23;6.63;;;;;;;;;;5035138;28;20423;-81
2024/02/26 12:48:16;;;;;;;7.40;5.60;;;;;;;;;;5035302;28;20765;-82
2024/02/26 12:50:45;;;;;;;8.87;7.30;;;;;;;;;;5034822;28;20520;-81
2024/02/26 12:53:12;;;;;;;7.97;6.43;;;;;;;;;;5035110;28;20446;-81
2024/02/26 12:55:39;;;;;;;8.60;7.30;;;;;;;;;;5035174;28;20423;-80
2024/02/26 12:58:06;;;;;;;10.17;7.60;;;;;;;;;;5035091;28;20857;-81
2024/02/26 13:00:32;;;;;;;12.00;9.30;;;;;;;;;;5034821;28;20414;-82
2024/02/26 13:02:59;;;;;;;12.03;9.10;;;;;;;;;;5047461;28;20487;-80
2024/02/26 13:05:26;;;;;;;12.00;9.07;;;;;;;;;;5040743;28;20422;-81
2024/02/26 13:07:52;;;;;;;14.43;9.67;;;;;;;;;;5044233;28;20420;-80
2024/02/26 13:10:20;;;;;;;11.97;8.80;;;;;;;;;;5044185;28;20532;-81
2024/02/26 13:12:47;;;;;;;13.67;10.13;;;;;;;;;;5044990;28;20421;-81
2024/02/26 13:15:17;;;;;;;10.10;7.87;;;;;;;;;;5036599;28;20814;-80
2024/02/26 13:17:43;;;;;;;14.63;10.37;;;;;;;;;;5034904;28;20420;-80
2024/02/26 13:20:10;;;;;;;13.17;9.73;;;;;;;;;;5034794;28;20418;-81
2024/02/26 13:22:36;;;;;;;12.87;8.60;;;;;;;;;;5032645;28;20413;-80
2024/02/26 13:25:06;;;;;;;12.00;8.20;;;;;;;;;;5034548;28;20885;-80
2024/02/26 13:27:32;;;;;;;17.63;9.00;;;;;;;;;;5034602;28;20410;-81
2024/02/26 13:30:07;;;;;;;11.70;8.40;;;;;;;;;;5034006;28;20501;-80
2024/02/26 13:32:35;;;;;;;11.87;8.23;;;;;;;;;;5034247;28;20418;-81
2024/02/26 13:35:07;;;;;;;11.30;8.40;;;;;;;;;;5034380;28;20549;-81
2024/02/26 13:37:34;;;;;;;12.27;8.07;;;;;;;;;;5032818;28;20418;-80
2024/02/26 13:40:00;;;;;;;12.77;8.70;;;;;;;;;;5033595;28;20499;-81
2024/02/26 13:42:26;;;;;;;10.27;7.93;;;;;;;;;;5034071;28;20416;-82
2024/02/26 13:44:52;;;;;;;10.17;7.00;;;;;;;;;;5032814;28;20471;-81
2024/02/26 13:47:18;;;;;;;11.53;8.30;;;;;;;;;;5031374;28;20406;-81
2024/02/26 13:49:44;;;;;;;10.07;8.13;;;;;;;;;;5034201;28;20810;-82
2024/02/26 13:52:10;;;;;;;10.53;6.60;;;;;;;;;;5032018;28;20460;-81
2024/02/26 13:54:38;;;;;;;11.87;8.13;;;;;;;;;;5034274;28;20466;-81
2024/02/26 13:57:05;;;;;;;9.80;8.27;;;;;;;;;;5033629;28;20411;-81
2024/02/26 13:59:31;;;;;;;12.13;7.40;;;;;;;;;;5033481;28;20517;-81
2024/02/26 14:01:57;;;;;;;9.80;7.30;;;;;;;;;;5033556;28;20410;-81
2024/02/26 14:04:23;;;;;;;9.77;7.80;;;;;;;;;;5033650;28;20508;-82
2024/02/26 14:06:49;;;;;;;11.30;8.30;;;;;;;;;;5033868;28;20441;-81
2024/02/26 14:09:18;;;;;;;10.60;7.23;;;;;;;;;;5034102;28;20467;-81
2024/02/26 14:11:45;;;;;;;12.37;7.70;;;;;;;;;;5033501;28;20426;-81
2024/02/26 14:14:11;;;;;;;11.90;9.40;;;;;;;;;;5031467;28;20469;-80
2024/02/26 14:16:38;;;;;;;12.23;8.77;;;;;;;;;;5034152;28;20424;-81
2024/02/26 14:19:04;;;;;;;12.07;9.50;;;;;;;;;;5034015;28;20560;-81
2024/02/26 14:21:30;;;;;;;13.23;9.10;;;;;;;;;;5033744;28;20467;-81
2024/02/26 14:23:56;;;;;;;13.07;8.60;;;;;;;;;;5033941;28;20426;-82
2024/02/26 14:26:25;;;;;;;11.67;9.33;;;;;;;;;;5033882;28;20480;-83
2024/02/26 14:28:51;;;;;;;11.23;9.67;;;;;;;;;;5033913;28;20470;-80
2024/02/26 14:31:18;;;;;;;10.23;7.97;;;;;;;;;;5033667;28;20401;-82
2024/02/26 14:33:44;;;;;;;11.00;7.90;;;;;;;;;;5033516;28;20547;-80
2024/02/26 14:36:11;;;;;;;11.80;8.37;;;;;;;;;;5033343;28;20429;-81